• Join FlightAware (Why Join?)
  • Login
  • US Flag 
09:01AM EDT


 

Airport Tracker/Info


-or-


 

Live Flight TrackerFlight Track Log ✈ FDX1254 ✈ 17-Apr-2013 ✈ KPVD - KFWA

Flight Track Log - Related Links

Times and Time Zones

All times are in EDT time to prevent confusion due to time zone crossing. See the FDX1254 flight status page for this flight to view local times or setup timezone preferences in your user account.

Time Position Orientation Groundspeed Altitude Reporting Facility
EDT Latitude Longitude Course Direction KTS MPH feet Rate Location/Type
09:00PM 41.7144 -71.4361 299° West 136 157 700  Level Boston Center
09:05PM 41.8920 -71.8630 299° West 328 377 15,300 2,820 Climbing FlightAware
09:06PM 41.9260 -71.9530 297° West 337 388 17,700 3,000 Climbing FlightAware
09:07PM 41.9520 -72.0230 297° West 344 396 19,600 1,920 Climbing FlightAware
09:08PM 41.9900 -72.1240 297° West 348 400 20,800 2,280 Climbing FlightAware
09:08PM 42.0170 -72.1960 297° West 23,000 2,880 Climbing FlightAware
09:09PM 42.0670 -72.3320 296° West 367 422 25,600 2,340 Climbing FlightAware
09:10PM 42.1070 -72.4420 296° West 371 427 27,500 1,800 Climbing FlightAware
09:11PM 42.1530 -72.5660 297° West 389 448 29,000 1,200 Climbing FlightAware
09:12PM 42.1920 -72.6720 296° West 408 470 29,700 1,380 Climbing FlightAware
09:13PM 42.2240 -72.7630 295° West 404 465 31,000 1,860 Climbing FlightAware
09:14PM 42.2810 -72.9150 297° West 396 456 33,200 1,440 Climbing FlightAware
09:14PM 42.3140 -72.9870 302° West 395 455 33,600 240 Climbing FlightAware
09:15PM 42.3550 -73.0760 302° West 395 455 33,600  Level FlightAware
09:16PM 42.3880 -73.1470 302° West 395 455 33,600 4,200 Level FlightAware
09:16PM 42.3440 -73.2290 234° Southwest 392 451 37,100 4,860 Climbing FlightAware
09:16PM 42.3280 -73.1190 101° East 37,300 1,320 Climbing FlightAware
09:17PM 42.3610 -73.3430 281° West 398 458 38,100 1,800 Climbing FlightAware
09:18PM 42.3760 -73.4500 281° West 396 456 39,400 1,320 Climbing FlightAware
09:18PM 42.3890 -73.5480 280° West 401 461 40,000 420 Climbing FlightAware
09:19PM 42.4050 -73.6460 282° West 387 445 40,000  Level FlightAware
09:20PM 42.4240 -73.7620 283° West 389 448 40,000  Level FlightAware
09:21PM 42.4430 -73.8860 282° West 399 459 40,000  Level FlightAware
09:21PM 42.4560 -73.9700 282° West 400 460 40,000  Level FlightAware
09:22PM 42.4740 -74.0820 282° West 399 459 40,000  Level FlightAware
09:23PM 42.4890 -74.1800 282° West 400 460 40,000  Level FlightAware
09:24PM 42.5120 -74.3300 282° West 403 464 40,000  Level FlightAware
09:24PM 42.5270 -74.4270 282° West 405 466 40,000  Level FlightAware
09:25PM 42.5410 -74.5190 282° West 408 470 40,000  Level FlightAware
09:26PM 42.5570 -74.6290 281° West 410 472 40,000  Level FlightAware
09:26PM 42.5720 -74.7300 281° West 411 473 40,000  Level FlightAware
09:27PM 42.5900 -74.8460 282° West 409 471 40,000  Level FlightAware
09:28PM 42.6040 -74.9440 281° West 407 468 40,000  Level FlightAware
09:28PM 42.6210 -75.0590 281° West 405 466 40,000  Level FlightAware
09:29PM 42.6350 -75.1590 281° West 404 465 40,000  Level FlightAware
09:30PM 42.6500 -75.2580 282° West 404 465 40,000  Level FlightAware
09:30PM 42.6640 -75.3580 281° West 403 464 40,000  Level FlightAware
09:31PM 42.6800 -75.4670 281° West 403 464 40,000  Level FlightAware
09:32PM 42.6940 -75.5690 281° West 403 464 40,000  Level FlightAware
09:33PM 42.7100 -75.6810 281° West 402 463 40,000  Level FlightAware
09:33PM 42.7220 -75.7700 280° West 402 463 40,000  Level FlightAware
09:34PM 42.7390 -75.8920 281° West 402 463 40,000  Level FlightAware
09:35PM 42.7530 -75.9920 281° West 402 463 40,000  Level FlightAware
09:35PM 42.7660 -76.0910 280° West 402 463 40,000  Level FlightAware
09:36PM 42.7820 -76.2030 281° West 400 460 40,000  Level FlightAware
09:37PM 42.7930 -76.3020 279° West 403 464 40,000  Level FlightAware
09:37PM 42.7760 -76.3940 256° West 410 472 40,000  Level FlightAware
09:38PM 42.7550 -76.5090 256° West 409 471 40,000  Level FlightAware
09:39PM 42.7370 -76.6140 257° West 411 473 40,000  Level FlightAware
09:40PM 42.7130 -76.7260 254° West 415 478 40,000  Level FlightAware
09:40PM 42.6910 -76.8260 253° West 417 480 40,000  Level FlightAware
09:41PM 42.6660 -76.9370 253° West 419 482 40,000  Level FlightAware
09:42PM 42.6430 -77.0410 253° West 420 483 40,000  Level FlightAware
09:42PM 42.6200 -77.1410 253° West 420 483 40,000  Level FlightAware
09:43PM 42.5960 -77.2520 254° West 416 479 40,000  Level FlightAware
09:44PM 42.5740 -77.3480 253° West 413 475 40,000  Level FlightAware
09:44PM 42.5510 -77.4450 252° West 411 473 40,000  Level FlightAware
09:45PM 42.5250 -77.5600 253° West 411 473 40,000  Level FlightAware
09:46PM 42.5020 -77.6590 253° West 412 474 40,000  Level FlightAware
09:47PM 42.4770 -77.7720 253° West 412 474 40,000  Level FlightAware
09:47PM 42.4540 -77.8700 252° West 410 472 40,000  Level FlightAware
09:48PM 42.4290 -77.9780 253° West 411 473 40,000  Level FlightAware
09:49PM 42.4050 -78.0780 252° West 407 468 40,000  Level FlightAware
09:49PM 42.3830 -78.1740 253° West 404 465 40,000  Level FlightAware
09:50PM 42.3570 -78.2820 252° West 401 461 40,000  Level FlightAware
09:51PM 42.3350 -78.3750 252° West 398 458 40,000  Level FlightAware
09:51PM 42.3120 -78.4710 252° West 396 456 40,000  Level FlightAware
09:52PM 42.2870 -78.5770 252° West 396 456 40,000  Level FlightAware
09:53PM 42.2640 -78.6710 252° West 395 455 40,000  Level FlightAware
09:54PM 42.2390 -78.7760 252° West 394 453 40,000  Level FlightAware
09:54PM 42.2170 -78.8670 252° West 394 453 40,000  Level FlightAware
09:55PM 42.1930 -78.9630 251° West 394 453 40,000  Level FlightAware
09:56PM 42.1680 -79.0680 252° West 394 453 40,000  Level FlightAware
09:56PM 42.1450 -79.1620 252° West 396 456 40,000  Level FlightAware
09:57PM 42.1190 -79.2670 252° West 396 456 40,000  Level FlightAware
09:58PM 42.0960 -79.3580 251° West 396 456 40,000  Level FlightAware
09:58PM 42.0720 -79.4540 251° West 396 456 40,000  Level FlightAware
09:59PM 42.0460 -79.5590 252° West 396 456 40,000  Level FlightAware
10:00PM 42.0240 -79.6480 252° West 396 456 40,000  Level FlightAware
10:01PM 41.9990 -79.7460 251° West 396 456 40,000  Level FlightAware
10:01PM 41.9750 -79.8420 251° West 398 458 40,000  Level FlightAware
10:02PM 41.9480 -79.9450 251° West 399 459 40,000  Level FlightAware
10:03PM 41.9220 -80.0500 252° West 399 459 40,000  Level FlightAware
10:03PM 41.8980 -80.1440 251° West 399 459 40,000  Level FlightAware
10:04PM 41.8720 -80.2440 251° West 398 458 40,000  Level FlightAware
10:05PM 41.8470 -80.3420 251° West 398 458 40,000  Level FlightAware
10:05PM 41.8220 -80.4350 250° West 396 456 40,000  Level FlightAware
10:06PM 41.7950 -80.5420 251° West 394 453 40,000  Level FlightAware
10:07PM 41.7710 -80.6320 250° West 392 451 40,000  Level FlightAware
10:08PM 41.7460 -80.7280 251° West 392 451 40,000  Level FlightAware
10:08PM 41.7200 -80.8260 250° West 390 449 40,000  Level FlightAware
10:09PM 41.6960 -80.9170 251° West 390 449 40,000  Level FlightAware
10:10PM 41.6680 -81.0240 251° West 392 451 40,000  Level FlightAware
10:10PM 41.6430 -81.1180 250° West 392 451 40,000  Level FlightAware
10:11PM 41.6150 -81.2200 250° West 391 450 40,000  Level FlightAware
10:12PM 41.5900 -81.3140 250° West 391 450 40,000  Level FlightAware
10:12PM 41.5670 -81.4000 250° West 390 449 40,000  Level FlightAware
10:13PM 41.5380 -81.5060 250° West 390 449 40,000  Level FlightAware
10:14PM 41.5140 -81.5950 250° West 390 449 40,000  Level FlightAware
10:15PM 41.4870 -81.6940 250° West 390 449 40,000  Level FlightAware
10:15PM 41.4620 -81.7870 250° West 390 449 40,000  Level FlightAware
10:16PM 41.4360 -81.8800 250° West 392 451 40,000  Level FlightAware
10:17PM 41.4100 -81.9730 250° West 394 453 40,000  Level FlightAware
10:17PM 41.3830 -82.0730 250° West 394 453 40,000  Level FlightAware
10:18PM 41.3590 -82.1620 250° West 393 452 40,000  Level FlightAware
10:19PM 41.3450 -82.2710 260° West 393 452 40,000  Level FlightAware
10:19PM 41.3350 -82.3650 262° West 393 452 40,000  Level FlightAware
10:20PM 41.3250 -82.4530 261° West 393 452 40,000  Level FlightAware
10:21PM 41.3120 -82.5660 261° West 394 453 40,000  Level FlightAware
10:22PM 41.3010 -82.6620 261° West 393 452 40,000  Level FlightAware
10:22PM 41.2890 -82.7690 262° West 391 450 40,000  Level FlightAware
10:23PM 41.2770 -82.8640 260° West 390 449 40,000  Level FlightAware
10:24PM 41.2650 -82.9700 261° West 390 449 40,000  Level FlightAware
10:24PM 41.2530 -83.0680 261° West 391 450 40,000 -600 Level FlightAware
10:25PM 41.2420 -83.1570 261° West 385 443 39,200 -2,100 Descending FlightAware
10:26PM 41.2300 -83.2660 262° West 394 453 37,100 -3,000 Descending FlightAware
10:26PM 41.2180 -83.3630 261° West 407 468 35,000 -3,540 Descending FlightAware
10:27PM 41.2030 -83.4800 260° West 430 495 32,100 -4,140 Descending FlightAware
10:28PM 41.1900 -83.5860 261° West 449 517 29,200 -4,500 Descending FlightAware
10:29PM 41.1760 -83.6970 261° West 456 525 26,100 -4,140 Descending FlightAware
10:29PM 41.1610 -83.8140 260° West 426 490 23,400 -3,480 Descending FlightAware
10:30PM 41.1490 -83.9150 261° West 396 456 21,200 -3,600 Descending FlightAware
10:31PM 41.1370 -84.0080 260° West 385 443 18,600 -3,300 Descending FlightAware
10:31PM 41.1230 -84.1120 260° West 376 433 16,600 -2,760 Descending FlightAware
10:32PM 41.1120 -84.2020 261° West 368 423 14,700 -2,760 Descending FlightAware
10:33PM 41.0990 -84.3010 260° West 362 417 12,700 -2,160 Descending FlightAware
10:33PM 41.0870 -84.3880 260° West 336 387 11,700 -1,140 Descending FlightAware
10:34PM 41.0780 -84.4630 261° West 301 346 11,200 -600 Descending FlightAware
10:35PM 41.0670 -84.5400 259° West 271 312 10,900 -240 Descending FlightAware
10:35PM 41.0600 -84.5970 261° West 266 306 10,900 -660 Level FlightAware
10:36PM 41.0490 -84.6770 260° West 263 303 10,000 -1,080 Descending FlightAware
10:37PM 41.0400 -84.7120 251° West 257 296 9,600 -1,080 Descending FlightAware
10:37PM 41.0250 -84.7460 240° Southwest 244 281 9,100 -900 Descending FlightAware
10:38PM 41.0080 -84.7800 236° Southwest 244 281 8,800 -300 Descending FlightAware
10:38PM 40.9920 -84.8120 236° Southwest 244 281 8,800  Level FlightAware
10:38PM 40.9820 -84.8330 238° Southwest 244 281 8,800  Level FlightAware
10:39PM 40.9710 -84.8550 236° Southwest 244 281 8,800 -2,820 Level FlightAware
10:39PM 40.9578 -84.8958 236° Southwest 241 277 6,400 -1,860 Descending Chicago Center
10:40PM 40.9350 -84.9836 251° West 226 260 6,000 -420 Descending Chicago Center
10:41PM 40.9169 -85.0511 251° West 209 241 5,600 -960 Descending Chicago Center
10:42PM 40.8983 -85.1228 251° West 205 236 4,100 -1,500 Descending Chicago Center
10:43PM 40.8631 -85.1822 232° Southwest 208 239 2,600 -780 Descending Chicago Center
10:44PM 40.8258 -85.2422 231° Southwest 212 244 2,600  Level Chicago Center
10:45PM 40.7911 -85.2969 230° Southwest 206 237 2,600  Level Chicago Center